createdAt,value
2023-11-18T00:01:24.704Z,4.60
2023-11-18T00:03:27.730Z,4.50
2023-11-18T00:05:30.665Z,4.40
2023-11-18T00:07:34.005Z,4.40
2023-11-18T00:09:37.840Z,4.40
2023-11-18T00:11:40.756Z,4.40
2023-11-18T00:13:43.907Z,4.40
2023-11-18T00:15:48.242Z,4.30
2023-11-18T00:17:50.170Z,4.30
2023-11-18T00:19:54.842Z,4.20
2023-11-18T00:21:57.877Z,4.20
2023-11-18T00:24:00.757Z,4.20
2023-11-18T00:26:04.329Z,4.10
2023-11-18T00:28:08.140Z,4.10
2023-11-18T00:30:12.202Z,4.00
2023-11-18T00:32:15.700Z,3.90
2023-11-18T00:34:18.844Z,3.90
2023-11-18T00:36:21.754Z,3.90
2023-11-18T00:38:24.644Z,3.90
2023-11-18T00:40:30.825Z,3.90
2023-11-18T00:42:34.300Z,3.80
2023-11-18T00:44:37.192Z,3.80
2023-11-18T00:46:39.217Z,3.70
2023-11-18T00:48:43.501Z,3.80
2023-11-18T00:50:46.824Z,3.70
2023-11-18T00:52:50.943Z,3.70
2023-11-18T00:54:53.957Z,3.60
2023-11-18T00:56:56.827Z,3.70
2023-11-18T00:58:59.755Z,3.60
2023-11-18T01:01:02.651Z,3.70
2023-11-18T01:03:05.659Z,3.60
2023-11-18T01:05:12.123Z,3.60
2023-11-18T01:07:15.092Z,3.60
2023-11-18T01:09:18.013Z,3.50
2023-11-18T01:11:21.105Z,3.50
2023-11-18T01:13:24.097Z,3.50
2023-11-18T01:15:26.976Z,3.50
2023-11-18T01:17:30.292Z,3.40
2023-11-18T01:19:33.372Z,3.50
2023-11-18T01:21:38.577Z,3.50
2023-11-18T01:23:46.144Z,3.40
2023-11-18T01:25:52.210Z,3.40
2023-11-18T01:27:55.191Z,3.40
2023-11-18T01:29:58.398Z,3.40
2023-11-18T01:32:01.401Z,3.40
2023-11-18T01:34:05.484Z,3.50
2023-11-18T01:36:10.631Z,3.50
2023-11-18T01:38:14.926Z,3.60
2023-11-18T01:40:18.522Z,3.50
2023-11-18T01:42:20.498Z,3.60
2023-11-18T01:44:25.121Z,3.70
2023-11-18T01:46:31.007Z,3.70
2023-11-18T01:48:34.697Z,3.80
2023-11-18T01:50:38.411Z,3.80
2023-11-18T01:52:40.425Z,3.80
2023-11-18T01:54:45.859Z,3.90
2023-11-18T01:56:49.305Z,3.90
2023-11-18T01:58:52.231Z,3.90
2023-11-18T02:00:55.110Z,4.00
2023-11-18T02:02:58.154Z,3.90
2023-11-18T02:05:02.227Z,4.00
2023-11-18T02:07:10.093Z,4.00
2023-11-18T02:09:13.900Z,4.00
2023-11-18T02:11:22.520Z,4.10
2023-11-18T02:13:28.966Z,4.10
2023-11-18T02:15:33.053Z,4.20
2023-11-18T02:17:36.048Z,4.20
2023-11-18T02:19:38.631Z,4.20
2023-11-18T02:21:41.620Z,4.20
2023-11-18T02:23:44.530Z,4.30
2023-11-18T02:25:49.086Z,4.30
2023-11-18T02:27:52.037Z,4.30
2023-11-18T02:29:54.018Z,4.30
2023-11-18T02:32:02.581Z,4.40
2023-11-18T02:34:08.478Z,4.30
2023-11-18T02:36:14.280Z,4.40
2023-11-18T02:38:17.869Z,4.40
2023-11-18T02:40:21.888Z,4.50
2023-11-18T02:42:26.168Z,4.40
2023-11-18T02:44:29.057Z,4.50
2023-11-18T02:46:32.018Z,4.50
2023-11-18T02:48:34.978Z,4.60
2023-11-18T02:50:37.936Z,4.60
2023-11-18T02:52:39.884Z,4.60
2023-11-18T02:54:42.863Z,4.60
2023-11-18T02:56:45.725Z,4.60
2023-11-18T02:58:50.070Z,4.70
2023-11-18T03:00:53.010Z,4.70
2023-11-18T03:02:55.463Z,4.60
2023-11-18T03:04:58.460Z,4.60
2023-11-18T03:07:01.921Z,4.70
2023-11-18T03:09:08.212Z,4.70
2023-11-18T03:11:11.173Z,4.60
2023-11-18T03:13:14.214Z,4.70
2023-11-18T03:15:19.764Z,4.70
2023-11-18T03:17:22.761Z,4.70
2023-11-18T03:19:25.745Z,4.80
2023-11-18T03:21:28.619Z,4.70
2023-11-18T03:23:31.508Z,4.70
2023-11-18T03:25:34.428Z,4.70
2023-11-18T03:27:37.446Z,4.70
2023-11-18T03:29:40.904Z,4.70
2023-11-18T03:31:49.460Z,4.70
2023-11-18T03:33:53.030Z,4.70
2023-11-18T03:35:56.274Z,4.80
2023-11-18T03:37:59.253Z,4.70
2023-11-18T03:40:02.159Z,4.80
2023-11-18T03:42:05.282Z,4.80
2023-11-18T03:44:08.190Z,4.70
2023-11-18T03:46:11.937Z,4.70
2023-11-18T03:48:16.316Z,4.80
2023-11-18T03:50:19.341Z,4.80
2023-11-18T03:52:22.238Z,4.80
2023-11-18T03:54:25.685Z,4.80
2023-11-18T03:56:28.084Z,4.90
2023-11-18T03:58:31.055Z,4.80
2023-11-18T04:00:34.019Z,4.80
2023-11-18T04:02:37.169Z,4.90
2023-11-18T04:04:41.626Z,4.90
2023-11-18T04:06:44.573Z,4.80
2023-11-18T04:08:47.777Z,4.80
2023-11-18T04:10:49.726Z,4.80
2023-11-18T04:12:52.615Z,4.90
2023-11-18T04:14:55.512Z,4.90
2023-11-18T04:16:58.887Z,4.80
2023-11-18T04:19:01.832Z,4.70
2023-11-18T04:21:06.893Z,4.80
2023-11-18T04:23:10.113Z,4.70
2023-11-18T04:25:13.701Z,4.80
2023-11-18T04:27:16.577Z,4.70
2023-11-18T04:29:19.693Z,4.60
2023-11-18T04:31:23.313Z,4.70
2023-11-18T04:33:26.551Z,4.60
2023-11-18T04:35:29.429Z,4.60
2023-11-18T04:37:33.692Z,4.50
2023-11-18T04:39:38.130Z,4.60
2023-11-18T04:41:41.001Z,4.60
2023-11-18T04:43:46.052Z,4.70
2023-11-18T04:45:49.298Z,4.70
2023-11-18T04:47:53.017Z,4.60
2023-11-18T04:49:56.050Z,4.60
2023-11-18T04:52:00.089Z,4.70
2023-11-18T04:54:04.542Z,4.60
2023-11-18T04:56:10.861Z,4.70
2023-11-18T04:58:13.789Z,4.70
2023-11-18T05:00:18.663Z,4.80
2023-11-18T05:02:21.663Z,4.80
2023-11-18T05:04:24.624Z,4.80
2023-11-18T05:06:27.497Z,4.80
2023-11-18T05:08:30.479Z,4.80
2023-11-18T05:10:34.826Z,4.80
2023-11-18T05:12:37.975Z,4.80
2023-11-18T05:14:40.873Z,4.80
2023-11-18T05:16:43.841Z,4.70
2023-11-18T05:18:46.903Z,4.70
2023-11-18T05:20:50.235Z,4.80
2023-11-18T05:22:53.207Z,4.60
2023-11-18T05:24:55.144Z,4.60
2023-11-18T05:27:02.862Z,4.50
2023-11-18T05:29:07.026Z,4.40
2023-11-18T05:31:10.015Z,4.40
2023-11-18T05:33:18.231Z,4.30
2023-11-18T05:35:24.783Z,4.30
2023-11-18T05:37:29.129Z,4.20
2023-11-18T05:39:32.419Z,4.20
2023-11-18T05:41:36.316Z,4.10
2023-11-18T05:43:41.947Z,4.10
2023-11-18T05:46:05.445Z,4.10
2023-11-18T05:48:09.027Z,4.10
2023-11-18T05:50:11.099Z,4.10
2023-11-18T05:52:13.994Z,3.90
2023-11-18T05:54:16.877Z,4.00
2023-11-18T05:56:19.166Z,4.00
2023-11-18T05:58:22.115Z,3.90
2023-11-18T06:00:33.193Z,3.90
2023-11-18T06:02:40.716Z,3.90
2023-11-18T06:04:43.741Z,3.80
2023-11-18T06:06:48.196Z,3.90
2023-11-18T06:08:51.264Z,3.90
2023-11-18T06:10:57.662Z,3.90
2023-11-18T06:13:00.639Z,4.00
2023-11-18T06:15:03.519Z,4.00
2023-11-18T06:17:08.679Z,3.90
2023-11-18T06:19:11.179Z,3.90
2023-11-18T06:21:15.535Z,3.80
2023-11-18T06:23:20.288Z,3.80
2023-11-18T06:25:23.978Z,3.90
2023-11-18T06:27:26.912Z,3.80
2023-11-18T06:29:30.615Z,3.80
2023-11-18T06:31:33.035Z,3.90
2023-11-18T06:33:43.905Z,3.80
2023-11-18T06:35:47.159Z,3.80
2023-11-18T06:37:50.080Z,3.60
2023-11-18T06:39:53.752Z,3.70
2023-11-18T06:42:00.236Z,3.70
2023-11-18T06:44:04.188Z,3.60
2023-11-18T06:46:07.211Z,3.60
2023-11-18T06:48:09.380Z,3.60
2023-11-18T06:50:15.429Z,3.50
2023-11-18T06:52:20.131Z,3.50
2023-11-18T06:54:25.383Z,3.50
2023-11-18T06:56:28.531Z,3.50
2023-11-18T06:58:30.433Z,3.50
2023-11-18T07:00:33.795Z,3.50
2023-11-18T07:02:36.941Z,3.50
2023-11-18T07:04:39.734Z,3.60
2023-11-18T07:06:44.328Z,3.60
2023-11-18T07:08:46.508Z,3.60
2023-11-18T07:10:49.667Z,3.70
2023-11-18T07:12:51.602Z,3.80
2023-11-18T07:14:55.198Z,3.80
2023-11-18T07:16:58.222Z,3.80
2023-11-18T07:19:01.173Z,4.00
2023-11-18T07:21:05.759Z,4.40
2023-11-18T07:23:10.177Z,4.60
2023-11-18T07:25:12.072Z,4.70
2023-11-18T07:27:15.025Z,4.50
2023-11-18T07:29:18.006Z,4.60
2023-11-18T07:31:21.089Z,4.60
2023-11-18T07:33:24.360Z,4.60
2023-11-18T07:35:28.133Z,4.60
2023-11-18T07:37:33.849Z,4.60
2023-11-18T07:39:45.669Z,4.60
2023-11-18T07:41:48.073Z,4.60
2023-11-18T07:43:51.121Z,4.50
2023-11-18T07:45:54.508Z,4.50
2023-11-18T07:47:57.574Z,4.50
2023-11-18T07:50:00.332Z,4.60
2023-11-18T07:52:03.605Z,4.50
2023-11-18T07:54:06.629Z,4.50
2023-11-18T07:56:12.075Z,4.40
2023-11-18T07:58:15.218Z,4.60
2023-11-18T08:00:18.837Z,4.50
2023-11-18T08:02:21.122Z,4.50
2023-11-18T08:04:24.113Z,4.60
2023-11-18T08:06:27.675Z,4.70
2023-11-18T08:08:30.776Z,4.70
2023-11-18T08:10:34.046Z,4.80
2023-11-18T08:12:38.258Z,4.90
2023-11-18T08:14:41.157Z,4.90
2023-11-18T08:16:44.206Z,4.90
2023-11-18T08:18:47.201Z,5.00
2023-11-18T08:20:50.073Z,5.00
2023-11-18T08:22:53.019Z,5.10
2023-11-18T08:24:55.940Z,5.10
2023-11-18T08:26:58.801Z,5.10
2023-11-18T08:29:03.202Z,5.10
2023-11-18T08:31:07.597Z,5.10
2023-11-18T08:33:10.920Z,5.20
2023-11-18T08:35:14.897Z,5.20
2023-11-18T08:37:18.070Z,5.30
2023-11-18T08:39:21.591Z,5.30
2023-11-18T08:41:24.987Z,5.30
2023-11-18T08:43:29.825Z,5.40
2023-11-18T08:45:35.757Z,5.50
2023-11-18T08:47:39.921Z,5.60
2023-11-18T08:49:47.363Z,5.60
2023-11-18T08:51:50.382Z,5.60
2023-11-18T08:53:55.899Z,5.70
2023-11-18T08:55:57.923Z,5.70
2023-11-18T08:58:00.839Z,5.70
2023-11-18T09:00:09.850Z,5.70
2023-11-18T09:02:16.279Z,5.70
2023-11-18T09:04:21.246Z,5.70
2023-11-18T09:06:29.370Z,5.70
2023-11-18T09:08:36.029Z,5.70
2023-11-18T09:10:39.345Z,5.70
2023-11-18T09:12:46.337Z,5.70
2023-11-18T09:14:53.044Z,5.70
2023-11-18T09:16:57.482Z,5.70
2023-11-18T09:19:04.045Z,5.80
2023-11-18T09:21:07.676Z,6.00
2023-11-18T09:23:10.305Z,5.90
2023-11-18T09:25:13.502Z,6.00
2023-11-18T09:27:16.406Z,5.90
2023-11-18T09:29:25.357Z,6.00
2023-11-18T09:31:28.561Z,6.10
2023-11-18T09:33:34.013Z,6.20
2023-11-18T09:35:38.421Z,6.30
2023-11-18T09:37:41.817Z,6.40
2023-11-18T09:39:46.817Z,6.40
2023-11-18T09:41:50.537Z,6.50
2023-11-18T09:43:55.826Z,6.60
2023-11-18T09:45:58.315Z,6.50
2023-11-18T09:48:03.003Z,6.80
2023-11-18T09:50:07.017Z,6.90
2023-11-18T09:52:14.444Z,7.10
2023-11-18T09:54:25.001Z,7.40
2023-11-18T09:56:39.394Z,8.20
2023-11-18T09:58:45.328Z,9.30
2023-11-18T10:00:48.992Z,9.80
2023-11-18T10:02:53.075Z,9.90
2023-11-18T10:04:59.538Z,9.80
2023-11-18T10:07:03.781Z,9.50
2023-11-18T10:09:16.665Z,9.40
2023-11-18T10:11:22.751Z,8.90
2023-11-18T10:13:25.785Z,9.40
2023-11-18T10:15:28.702Z,9.50
2023-11-18T10:17:33.135Z,9.40
2023-11-18T10:20:01.362Z,9.40
2023-11-18T10:22:05.532Z,9.90
2023-11-18T10:24:15.546Z,10.60
2023-11-18T10:26:18.534Z,11.10
2023-11-18T10:28:25.678Z,10.90
2023-11-18T10:30:28.575Z,10.50
2023-11-18T10:32:36.183Z,10.10
2023-11-18T10:34:39.681Z,9.90
2023-11-18T10:36:42.534Z,9.40
2023-11-18T10:38:51.095Z,9.30
2023-11-18T10:40:59.401Z,9.10
2023-11-18T10:43:02.504Z,9.00
2023-11-18T10:45:06.072Z,8.70
2023-11-18T10:47:12.759Z,8.70
2023-11-18T10:49:15.989Z,8.50
2023-11-18T10:51:20.272Z,8.50
2023-11-18T10:53:24.084Z,8.00
2023-11-18T10:55:34.425Z,8.10
2023-11-18T10:57:39.996Z,7.90
2023-11-18T11:00:00.576Z,7.70
2023-11-18T11:02:03.587Z,7.70
2023-11-18T11:04:06.673Z,7.60
2023-11-18T11:06:19.259Z,7.40
2023-11-18T11:08:29.344Z,7.60
2023-11-18T11:10:42.804Z,7.50
2023-11-18T11:12:53.352Z,7.50
2023-11-18T11:15:00.804Z,7.50
2023-11-18T11:17:12.605Z,7.40
2023-11-18T11:19:23.483Z,7.50
2023-11-18T11:21:29.484Z,7.50
2023-11-18T11:23:40.380Z,7.30
2023-11-18T11:25:46.301Z,7.50
2023-11-18T11:28:00.985Z,7.60
2023-11-18T11:30:11.431Z,7.60
2023-11-18T11:32:19.908Z,7.70
2023-11-18T11:34:24.878Z,7.50
2023-11-18T11:36:32.556Z,7.50
2023-11-18T11:38:36.519Z,7.70
2023-11-18T11:40:39.690Z,7.80
2023-11-18T11:42:41.771Z,7.60
2023-11-18T11:44:46.216Z,7.60
2023-11-18T11:46:54.192Z,7.50
2023-11-18T11:48:57.238Z,7.50
2023-11-18T11:51:16.019Z,7.40
2023-11-18T11:53:23.826Z,7.40
2023-11-18T11:55:31.773Z,7.40
2023-11-18T11:57:37.902Z,7.40
2023-11-18T11:59:59.169Z,7.40
2023-11-18T12:02:02.604Z,7.20
2023-11-18T12:04:08.231Z,7.30
2023-11-18T12:06:17.227Z,7.20
2023-11-18T12:08:20.253Z,7.10
2023-11-18T12:10:23.243Z,7.20
2023-11-18T12:12:27.773Z,7.20
2023-11-18T12:14:42.237Z,7.20
2023-11-18T12:17:10.563Z,7.30
2023-11-18T12:19:32.277Z,7.30
2023-11-18T12:21:56.710Z,7.30
2023-11-18T12:24:20.349Z,7.40
2023-11-18T12:26:41.169Z,7.40
2023-11-18T12:28:46.873Z,7.40
2023-11-18T12:30:57.277Z,7.40
2023-11-18T12:33:02.575Z,7.40
2023-11-18T12:35:11.615Z,7.30
2023-11-18T12:37:28.150Z,7.00
2023-11-18T12:40:25.518Z,7.20
2023-11-18T12:42:59.393Z,7.20
2023-11-18T12:45:15.486Z,7.20
2023-11-18T12:47:22.109Z,7.20
2023-11-18T12:49:26.942Z,7.20
2023-11-18T12:51:32.209Z,7.20
2023-11-18T12:53:36.659Z,7.10
2023-11-18T12:55:39.587Z,7.10
2023-11-18T12:57:48.760Z,7.10
2023-11-18T12:59:52.011Z,7.00
2023-11-18T13:01:58.043Z,7.00
2023-11-18T13:04:02.709Z,6.90
2023-11-18T13:06:08.098Z,6.90
2023-11-18T13:08:11.098Z,6.90
2023-11-18T13:10:16.583Z,6.90
2023-11-18T13:12:21.357Z,6.90
2023-11-18T13:14:27.248Z,6.90
2023-11-18T13:16:30.814Z,6.90
2023-11-18T13:18:44.395Z,6.80
2023-11-18T13:20:58.504Z,6.90
2023-11-18T13:23:09.517Z,6.90
2023-11-18T13:25:15.409Z,6.90
2023-11-18T13:27:18.775Z,6.90
2023-11-18T13:29:22.717Z,6.90
2023-11-18T13:31:25.644Z,6.90
2023-11-18T13:33:28.547Z,6.80
2023-11-18T13:35:31.545Z,6.80
2023-11-18T13:37:34.431Z,6.70
2023-11-18T13:39:39.754Z,6.70
2023-11-18T13:41:42.270Z,6.70
2023-11-18T13:43:45.501Z,6.60
2023-11-18T13:45:53.509Z,6.70
2023-11-18T13:47:59.049Z,6.60
2023-11-18T13:50:02.007Z,6.60
2023-11-18T13:52:05.167Z,6.60
2023-11-18T13:54:08.290Z,6.60
2023-11-18T13:56:11.562Z,6.60
2023-11-18T13:58:14.484Z,6.60
2023-11-18T14:00:18.210Z,6.50
2023-11-18T14:02:21.262Z,6.50
2023-11-18T14:04:24.764Z,6.50
2023-11-18T14:06:28.650Z,6.50
2023-11-18T14:08:31.668Z,6.40
2023-11-18T14:10:34.873Z,6.40
2023-11-18T14:12:39.133Z,6.40
2023-11-18T14:14:42.830Z,6.40
2023-11-18T14:16:46.629Z,6.40
2023-11-18T14:18:49.596Z,6.40
2023-11-18T14:20:52.546Z,6.40
2023-11-18T14:22:55.975Z,6.40
2023-11-18T14:24:59.073Z,6.40
2023-11-18T14:27:01.962Z,6.30
2023-11-18T14:29:07.259Z,6.40
2023-11-18T14:31:10.986Z,6.40
2023-11-18T14:33:13.906Z,6.40
2023-11-18T14:35:18.546Z,6.30
2023-11-18T14:37:21.639Z,6.40
2023-11-18T14:39:24.577Z,6.30
2023-11-18T14:41:29.898Z,6.30
2023-11-18T14:43:32.925Z,6.30
2023-11-18T14:45:38.552Z,6.40
2023-11-18T14:47:40.581Z,6.40
2023-11-18T14:49:44.152Z,6.40
2023-11-18T14:51:47.443Z,6.40
2023-11-18T14:53:50.306Z,6.30
2023-11-18T14:55:53.246Z,6.30
2023-11-18T14:57:56.248Z,6.30
2023-11-18T14:59:59.813Z,6.40
2023-11-18T15:02:04.481Z,6.40
2023-11-18T15:04:07.901Z,6.40
2023-11-18T15:06:12.739Z,6.40
2023-11-18T15:08:16.994Z,6.30
2023-11-18T15:10:22.901Z,6.30
2023-11-18T15:12:25.758Z,6.30
2023-11-18T15:14:29.728Z,6.20
2023-11-18T15:16:32.702Z,6.20
2023-11-18T15:18:37.024Z,6.20
2023-11-18T15:20:39.918Z,6.10
2023-11-18T15:22:45.372Z,6.10
2023-11-18T15:24:48.655Z,6.10
2023-11-18T15:26:52.545Z,6.10
2023-11-18T15:28:55.958Z,6.00
2023-11-18T15:30:58.950Z,6.00
2023-11-18T15:33:02.646Z,6.00
2023-11-18T15:35:09.708Z,5.90
2023-11-18T15:37:12.707Z,5.90
2023-11-18T15:39:16.031Z,5.90
2023-11-18T15:41:19.077Z,5.90
2023-11-18T15:43:22.884Z,5.90
2023-11-18T15:45:27.537Z,5.80
2023-11-18T15:47:29.776Z,5.80
2023-11-18T15:49:32.688Z,5.90
2023-11-18T15:51:36.875Z,5.80
2023-11-18T15:53:39.739Z,5.70
2023-11-18T15:55:43.652Z,5.80
2023-11-18T15:57:48.493Z,5.80
2023-11-18T15:59:51.651Z,5.70
2023-11-18T16:01:54.552Z,5.60
2023-11-18T16:03:58.054Z,5.60
2023-11-18T16:06:00.960Z,5.60
2023-11-18T16:08:08.278Z,5.60
2023-11-18T16:10:10.817Z,5.60
2023-11-18T16:12:13.698Z,5.60
2023-11-18T16:14:17.267Z,5.60
2023-11-18T16:16:20.217Z,5.60
2023-11-18T16:18:24.038Z,5.70
2023-11-18T16:20:28.021Z,5.70
2023-11-18T16:22:30.924Z,5.70
2023-11-18T16:24:35.182Z,5.60
2023-11-18T16:26:38.061Z,5.70
2023-11-18T16:28:40.975Z,5.70
2023-11-18T16:30:43.861Z,5.60
2023-11-18T16:32:50.225Z,5.70
2023-11-18T16:34:53.756Z,5.60
2023-11-18T16:36:57.752Z,5.70
2023-11-18T16:39:01.007Z,5.70
2023-11-18T16:41:05.757Z,5.70
2023-11-18T16:43:08.707Z,5.70
2023-11-18T16:45:12.428Z,5.70
2023-11-18T16:47:14.464Z,5.80
2023-11-18T16:49:18.066Z,5.70
2023-11-18T16:51:21.893Z,5.70
2023-11-18T16:53:23.911Z,5.70
2023-11-18T16:55:27.236Z,5.80
2023-11-18T16:57:31.828Z,5.80
2023-11-18T16:59:33.779Z,5.80
2023-11-18T17:01:36.692Z,5.80
2023-11-18T17:03:39.708Z,5.80
2023-11-18T17:05:42.701Z,5.80
2023-11-18T17:07:45.612Z,5.80
2023-11-18T17:09:48.472Z,5.90
2023-11-18T17:11:51.422Z,5.90
2023-11-18T17:13:55.686Z,5.80
2023-11-18T17:15:57.670Z,5.80
2023-11-18T17:18:03.961Z,5.90
2023-11-18T17:20:10.564Z,5.80
2023-11-18T17:22:13.667Z,5.90
2023-11-18T17:24:17.716Z,5.80
2023-11-18T17:26:20.742Z,5.70
2023-11-18T17:28:23.685Z,5.80
2023-11-18T17:30:33.129Z,5.70
2023-11-18T17:32:36.067Z,5.80
2023-11-18T17:34:39.002Z,5.80
2023-11-18T17:36:42.089Z,5.80
2023-11-18T17:38:44.988Z,5.80
2023-11-18T17:40:47.333Z,5.80
2023-11-18T17:42:52.396Z,5.70
2023-11-18T17:44:56.834Z,5.70
2023-11-18T17:47:02.046Z,5.70
2023-11-18T17:49:05.886Z,5.70
2023-11-18T17:51:08.795Z,5.80
2023-11-18T17:53:12.309Z,5.90
2023-11-18T17:55:15.956Z,5.80
2023-11-18T17:57:18.923Z,5.80
2023-11-18T17:59:21.906Z,5.80
2023-11-18T18:01:26.882Z,5.80
2023-11-18T18:03:31.898Z,5.70
2023-11-18T18:05:33.974Z,5.80
2023-11-18T18:07:37.176Z,5.80
2023-11-18T18:09:39.273Z,5.70
2023-11-18T18:11:42.171Z,5.70
2023-11-18T18:13:45.119Z,5.70
2023-11-18T18:15:48.483Z,5.70
2023-11-18T18:17:51.478Z,5.70
2023-11-18T18:19:55.743Z,5.70
2023-11-18T18:21:57.671Z,5.70
2023-11-18T18:24:00.545Z,5.70
2023-11-18T18:26:03.457Z,5.70
2023-11-18T18:28:05.445Z,5.70
2023-11-18T18:30:11.015Z,5.70
2023-11-18T18:32:13.946Z,5.70
2023-11-18T18:34:16.849Z,5.70
2023-11-18T18:36:21.935Z,5.60
2023-11-18T18:38:24.874Z,5.70
2023-11-18T18:40:29.768Z,5.70
2023-11-18T18:42:34.274Z,5.70
2023-11-18T18:44:37.231Z,5.70
2023-11-18T18:46:40.121Z,5.70
2023-11-18T18:48:42.994Z,5.60
2023-11-18T18:50:47.031Z,5.70
2023-11-18T18:52:51.706Z,5.70
2023-11-18T18:54:54.927Z,5.60
2023-11-18T18:56:57.801Z,5.60
2023-11-18T18:59:00.734Z,5.80
2023-11-18T19:01:03.663Z,5.80
2023-11-18T19:03:06.736Z,5.70
2023-11-18T19:05:10.494Z,5.60
2023-11-18T19:07:13.407Z,5.80
2023-11-18T19:09:18.704Z,5.80
2023-11-18T19:11:21.655Z,5.70
2023-11-18T19:13:24.603Z,5.70
2023-11-18T19:15:27.510Z,5.80
2023-11-18T19:17:30.580Z,5.80
2023-11-18T19:19:33.541Z,5.70
2023-11-18T19:21:36.445Z,5.80
2023-11-18T19:23:39.922Z,5.80
2023-11-18T19:25:43.173Z,5.70
2023-11-18T19:27:47.120Z,5.70
2023-11-18T19:29:50.227Z,5.80
2023-11-18T19:31:53.146Z,5.70
2023-11-18T19:33:56.055Z,5.70
2023-11-18T19:35:58.955Z,5.80
2023-11-18T19:38:03.910Z,5.70
2023-11-18T19:40:07.332Z,5.60
2023-11-18T19:42:11.771Z,5.80
2023-11-18T19:44:13.726Z,5.70
2023-11-18T19:46:17.298Z,5.70
2023-11-18T19:48:20.313Z,5.80
2023-11-18T19:52:29.129Z,5.70
2023-11-18T19:54:32.830Z,5.70
2023-11-18T19:56:35.794Z,5.70
2023-11-18T19:58:40.092Z,5.80
2023-11-18T20:00:45.159Z,5.80
2023-11-18T20:02:48.153Z,5.80
2023-11-18T20:04:51.108Z,5.70
2023-11-18T20:06:54.026Z,5.70
2023-11-18T20:08:56.902Z,5.70
2023-11-18T20:10:59.999Z,5.80
2023-11-18T20:13:02.910Z,5.80
2023-11-18T20:15:12.127Z,5.80
2023-11-18T20:17:15.028Z,5.80
2023-11-18T20:19:17.949Z,5.80
2023-11-18T20:21:19.838Z,5.90
2023-11-18T20:23:22.796Z,5.80
2023-11-18T20:25:26.214Z,5.90
2023-11-18T20:27:29.119Z,5.90
2023-11-18T20:29:32.042Z,5.80
2023-11-18T20:31:37.617Z,5.80
2023-11-18T20:33:42.957Z,5.90
2023-11-18T20:35:46.408Z,5.80
2023-11-18T20:37:49.504Z,5.80
2023-11-18T20:39:52.426Z,5.80
2023-11-18T20:41:55.393Z,5.80
2023-11-18T20:43:58.450Z,5.90
2023-11-18T20:46:01.323Z,5.90
2023-11-18T20:48:06.811Z,5.80
2023-11-18T20:50:12.625Z,6.00
2023-11-18T20:52:15.560Z,6.00
2023-11-18T20:54:18.456Z,6.00
2023-11-18T20:56:22.075Z,6.00
2023-11-18T20:58:25.002Z,5.90
2023-11-18T21:00:27.883Z,6.00
2023-11-18T21:02:29.889Z,6.00
2023-11-18T21:04:34.312Z,5.90
2023-11-18T21:06:37.473Z,5.90
2023-11-18T21:08:39.380Z,6.00
2023-11-18T21:10:42.265Z,5.90
2023-11-18T21:12:45.132Z,6.00
2023-11-18T21:14:50.083Z,5.80
2023-11-18T21:16:52.978Z,5.90
2023-11-18T21:18:59.044Z,5.80
2023-11-18T21:21:03.702Z,5.90
2023-11-18T21:23:06.682Z,6.00
2023-11-18T21:25:09.440Z,5.80
2023-11-18T21:27:12.311Z,5.90
2023-11-18T21:29:16.882Z,5.80
2023-11-18T21:31:19.810Z,5.90
2023-11-18T21:33:24.105Z,5.90
2023-11-18T21:35:27.087Z,5.80
2023-11-18T21:37:31.639Z,5.80
2023-11-18T21:39:35.027Z,5.80
2023-11-18T21:41:37.933Z,5.90
2023-11-18T21:43:40.871Z,5.90
2023-11-18T21:45:44.207Z,5.90
2023-11-18T21:47:46.709Z,5.80
2023-11-18T21:49:52.799Z,5.80
2023-11-18T21:51:56.290Z,5.90
2023-11-18T21:54:02.139Z,6.00
2023-11-18T21:56:06.479Z,5.90
2023-11-18T21:58:09.406Z,5.90
2023-11-18T22:00:13.924Z,5.90
2023-11-18T22:02:17.232Z,5.90
2023-11-18T22:04:20.192Z,5.80
2023-11-18T22:06:23.446Z,6.00
2023-11-18T22:08:26.391Z,6.00
2023-11-18T22:10:30.626Z,5.90
2023-11-18T22:12:33.537Z,6.00
2023-11-18T22:14:35.510Z,5.90
2023-11-18T22:16:38.454Z,6.00
2023-11-18T22:18:41.481Z,5.90
2023-11-18T22:20:45.553Z,5.90
2023-11-18T22:22:50.107Z,5.90
2023-11-18T22:24:53.799Z,6.00
2023-11-18T22:26:58.090Z,5.90
2023-11-18T22:29:01.038Z,6.00
2023-11-18T22:31:05.216Z,6.00
2023-11-18T22:33:09.578Z,6.00
2023-11-18T22:35:12.761Z,6.00
2023-11-18T22:37:15.723Z,6.10
2023-11-18T22:39:24.008Z,6.20
2023-11-18T22:41:26.963Z,6.20
2023-11-18T22:43:31.195Z,6.30
2023-11-18T22:45:34.103Z,6.20
2023-11-18T22:47:37.405Z,6.30
2023-11-18T22:49:41.708Z,6.20
2023-11-18T22:51:44.667Z,6.20
2023-11-18T22:53:47.585Z,6.30
2023-11-18T22:55:52.068Z,6.30
2023-11-18T22:57:54.186Z,6.20
2023-11-18T22:59:59.839Z,6.20
2023-11-18T23:02:04.337Z,6.30
2023-11-18T23:04:12.800Z,6.30
2023-11-18T23:06:20.873Z,6.30
2023-11-18T23:08:23.955Z,6.20
2023-11-18T23:10:26.232Z,6.20
2023-11-18T23:12:29.468Z,6.30
2023-11-18T23:14:32.389Z,6.20
2023-11-18T23:16:36.641Z,6.20
2023-11-18T23:18:41.692Z,6.40
2023-11-18T23:20:44.696Z,6.40
2023-11-18T23:22:48.490Z,6.40
2023-11-18T23:24:51.386Z,6.40
2023-11-18T23:26:56.776Z,6.30
2023-11-18T23:28:59.672Z,6.40
2023-11-18T23:31:03.865Z,6.50
2023-11-18T23:33:09.137Z,6.50
2023-11-18T23:35:12.524Z,6.60
2023-11-18T23:37:15.543Z,6.60
2023-11-18T23:39:18.794Z,6.50
2023-11-18T23:41:22.123Z,6.70
2023-11-18T23:43:25.074Z,6.70
2023-11-18T23:45:27.971Z,6.80
2023-11-18T23:47:29.874Z,6.80
2023-11-18T23:49:34.081Z,6.90
2023-11-18T23:51:36.970Z,7.10
2023-11-18T23:53:39.941Z,7.10
2023-11-18T23:55:42.863Z,7.20
2023-11-18T23:57:45.016Z,7.10
2023-11-18T23:59:48.026Z,7.30
